sensor_id;sensor_type;location;lat;lon;timestamp;pressure;altitude;pressure_sealevel;temperature;humidity
68793;BME280;55778;54.346;10.210;2023-04-25T00:00:28;99874.34;;;6.38;100.00
68793;BME280;55778;54.346;10.210;2023-04-25T00:02:54;99890.28;;;6.31;100.00
68793;BME280;55778;54.346;10.210;2023-04-25T00:05:21;99892.56;;;6.36;100.00
68793;BME280;55778;54.346;10.210;2023-04-25T00:07:48;99885.47;;;6.35;100.00
68793;BME280;55778;54.346;10.210;2023-04-25T00:10:14;99891.84;;;6.34;100.00
68793;BME280;55778;54.346;10.210;2023-04-25T00:12:39;99891.28;;;6.40;100.00
68793;BME280;55778;54.346;10.210;2023-04-25T00:15:05;99889.31;;;6.42;100.00
68793;BME280;55778;54.346;10.210;2023-04-25T00:17:31;99888.16;;;6.35;100.00
68793;BME280;55778;54.346;10.210;2023-04-25T00:19:56;99892.28;;;6.39;100.00
68793;BME280;55778;54.346;10.210;2023-04-25T00:22:23;99887.56;;;6.31;100.00
68793;BME280;55778;54.346;10.210;2023-04-25T00:24:49;99886.72;;;6.21;100.00
68793;BME280;55778;54.346;10.210;2023-04-25T00:27:15;99890.97;;;6.14;100.00
68793;BME280;55778;54.346;10.210;2023-04-25T00:29:40;99889.13;;;6.24;100.00
68793;BME280;55778;54.346;10.210;2023-04-25T00:32:06;99891.44;;;6.29;100.00
68793;BME280;55778;54.346;10.210;2023-04-25T00:34:31;99891.56;;;6.27;100.00
68793;BME280;55778;54.346;10.210;2023-04-25T00:36:56;99891.25;;;6.21;100.00
68793;BME280;55778;54.346;10.210;2023-04-25T00:39:22;99885.16;;;6.28;100.00
68793;BME280;55778;54.346;10.210;2023-04-25T00:41:47;99884.41;;;6.26;100.00
68793;BME280;55778;54.346;10.210;2023-04-25T00:44:15;99895.97;;;6.28;100.00
68793;BME280;55778;54.346;10.210;2023-04-25T00:46:42;99896.38;;;6.24;100.00
68793;BME280;55778;54.346;10.210;2023-04-25T00:49:07;99898.09;;;6.25;100.00
68793;BME280;55778;54.346;10.210;2023-04-25T00:51:33;99898.97;;;6.16;100.00
68793;BME280;55778;54.346;10.210;2023-04-25T00:53:59;99894.66;;;6.13;100.00
68793;BME280;55778;54.346;10.210;2023-04-25T00:56:25;99893.09;;;6.10;100.00
68793;BME280;55778;54.346;10.210;2023-04-25T00:58:53;99888.34;;;5.93;100.00
68793;BME280;55778;54.346;10.210;2023-04-25T01:01:19;99899.16;;;5.93;100.00
68793;BME280;55778;54.346;10.210;2023-04-25T01:03:45;99892.03;;;5.92;100.00
68793;BME280;55778;54.346;10.210;2023-04-25T01:06:12;99898.59;;;5.90;100.00
68793;BME280;55778;54.346;10.210;2023-04-25T01:08:38;99907.97;;;5.86;100.00
68793;BME280;55778;54.346;10.210;2023-04-25T01:11:05;99904.84;;;5.90;100.00
68793;BME280;55778;54.346;10.210;2023-04-25T01:13:31;99899.44;;;5.90;100.00
68793;BME280;55778;54.346;10.210;2023-04-25T01:15:58;99913.81;;;5.91;100.00
68793;BME280;55778;54.346;10.210;2023-04-25T01:18:24;99901.84;;;5.84;100.00
68793;BME280;55778;54.346;10.210;2023-04-25T01:20:53;99907.25;;;5.84;100.00
68793;BME280;55778;54.346;10.210;2023-04-25T01:23:20;99912.31;;;5.77;100.00
68793;BME280;55778;54.346;10.210;2023-04-25T01:25:46;99910.31;;;5.79;100.00
68793;BME280;55778;54.346;10.210;2023-04-25T01:28:13;99913.38;;;5.65;100.00
68793;BME280;55778;54.346;10.210;2023-04-25T01:33:54;99928.72;;;5.55;100.00
68793;BME280;55778;54.346;10.210;2023-04-25T01:36:20;99926.72;;;5.57;100.00
68793;BME280;55778;54.346;10.210;2023-04-25T01:38:46;99931.88;;;5.60;100.00
68793;BME280;55778;54.346;10.210;2023-04-25T01:41:13;99927.44;;;5.59;100.00
68793;BME280;55778;54.346;10.210;2023-04-25T01:43:39;99930.41;;;5.56;100.00
68793;BME280;55778;54.346;10.210;2023-04-25T01:46:05;99935.25;;;5.53;100.00
68793;BME280;55778;54.346;10.210;2023-04-25T01:48:30;99935.94;;;5.55;100.00
68793;BME280;55778;54.346;10.210;2023-04-25T01:50:56;99933.97;;;5.57;100.00
68793;BME280;55778;54.346;10.210;2023-04-25T01:53:21;99935.66;;;5.48;99.90
68793;BME280;55778;54.346;10.210;2023-04-25T01:55:47;99942.88;;;5.48;100.00
68793;BME280;55778;54.346;10.210;2023-04-25T01:58:13;99935.56;;;5.39;100.00
68793;BME280;55778;54.346;10.210;2023-04-25T02:00:39;99942.91;;;5.27;100.00
68793;BME280;55778;54.346;10.210;2023-04-25T02:03:06;99947.00;;;5.22;100.00
68793;BME280;55778;54.346;10.210;2023-04-25T02:05:35;99949.22;;;5.17;100.00
68793;BME280;55778;54.346;10.210;2023-04-25T02:08:02;99944.97;;;5.14;100.00
68793;BME280;55778;54.346;10.210;2023-04-25T02:13:50;99951.06;;;5.16;100.00
68793;BME280;55778;54.346;10.210;2023-04-25T02:16:15;99957.19;;;5.18;100.00
68793;BME280;55778;54.346;10.210;2023-04-25T02:18:40;99954.88;;;5.14;100.00
68793;BME280;55778;54.346;10.210;2023-04-25T02:21:06;99961.56;;;5.10;100.00
68793;BME280;55778;54.346;10.210;2023-04-25T02:23:31;99950.75;;;5.10;100.00
68793;BME280;55778;54.346;10.210;2023-04-25T02:25:57;99962.81;;;5.06;100.00
68793;BME280;55778;54.346;10.210;2023-04-25T02:28:23;99964.28;;;4.99;100.00
68793;BME280;55778;54.346;10.210;2023-04-25T02:30:49;99956.72;;;4.93;100.00
68793;BME280;55778;54.346;10.210;2023-04-25T02:33:15;99963.84;;;4.94;100.00
68793;BME280;55778;54.346;10.210;2023-04-25T02:35:42;99961.41;;;4.91;100.00
68793;BME280;55778;54.346;10.210;2023-04-25T02:38:07;99959.47;;;4.82;100.00
68793;BME280;55778;54.346;10.210;2023-04-25T02:40:32;99956.41;;;4.86;100.00
68793;BME280;55778;54.346;10.210;2023-04-25T02:42:58;99969.38;;;4.92;100.00
68793;BME280;55778;54.346;10.210;2023-04-25T02:45:23;99964.56;;;4.96;100.00
68793;BME280;55778;54.346;10.210;2023-04-25T02:47:48;99961.97;;;4.94;100.00
68793;BME280;55778;54.346;10.210;2023-04-25T02:50:14;99967.38;;;4.94;100.00
68793;BME280;55778;54.346;10.210;2023-04-25T02:52:39;99960.50;;;5.01;98.68
68793;BME280;55778;54.346;10.210;2023-04-25T02:55:05;99966.72;;;5.02;98.15
68793;BME280;55778;54.346;10.210;2023-04-25T02:57:31;99967.13;;;4.97;98.29
68793;BME280;55778;54.346;10.210;2023-04-25T02:59:56;99972.78;;;4.94;99.01
68793;BME280;55778;54.346;10.210;2023-04-25T03:02:21;99980.50;;;4.99;98.31
68793;BME280;55778;54.346;10.210;2023-04-25T03:04:47;99978.41;;;5.02;97.70
68793;BME280;55778;54.346;10.210;2023-04-25T03:07:13;99977.41;;;5.03;96.69
68793;BME280;55778;54.346;10.210;2023-04-25T03:09:38;99969.78;;;5.08;96.03
68793;BME280;55778;54.346;10.210;2023-04-25T03:12:09;99969.53;;;5.11;94.90
68793;BME280;55778;54.346;10.210;2023-04-25T03:18:33;99966.56;;;5.14;94.27
68793;BME280;55778;54.346;10.210;2023-04-25T03:25:03;99962.00;;;5.15;94.75
68793;BME280;55778;54.346;10.210;2023-04-25T03:28:59;99970.69;;;5.18;92.95
68793;BME280;55778;54.346;10.210;2023-04-25T03:32:26;99978.94;;;5.17;91.89
68793;BME280;55778;54.346;10.210;2023-04-25T03:36:18;99978.94;;;5.17;92.04
68793;BME280;55778;54.346;10.210;2023-04-25T03:46:40;99984.66;;;5.03;91.74
68793;BME280;55778;54.346;10.210;2023-04-25T03:49:05;99988.06;;;5.05;90.23
68793;BME280;55778;54.346;10.210;2023-04-25T03:51:31;99990.91;;;5.03;89.67
68793;BME280;55778;54.346;10.210;2023-04-25T03:53:56;99990.19;;;5.01;89.58
68793;BME280;55778;54.346;10.210;2023-04-25T03:56:22;99987.75;;;4.98;90.05
68793;BME280;55778;54.346;10.210;2023-04-25T03:58:47;99997.56;;;4.99;90.11
68793;BME280;55778;54.346;10.210;2023-04-25T04:01:13;99996.16;;;5.05;88.93
68793;BME280;55778;54.346;10.210;2023-04-25T04:03:38;99996.31;;;5.03;88.86
68793;BME280;55778;54.346;10.210;2023-04-25T04:06:04;100007.63;;;4.97;88.39
68793;BME280;55778;54.346;10.210;2023-04-25T04:08:31;99993.34;;;5.06;86.59
68793;BME280;55778;54.346;10.210;2023-04-25T04:10:57;100000.88;;;5.03;86.21
68793;BME280;55778;54.346;10.210;2023-04-25T04:13:23;100000.88;;;5.03;84.80
68793;BME280;55778;54.346;10.210;2023-04-25T04:15:48;100013.16;;;5.16;81.85
68793;BME280;55778;54.346;10.210;2023-04-25T04:18:14;100010.28;;;5.08;81.93
68793;BME280;55778;54.346;10.210;2023-04-25T04:20:39;100011.16;;;5.09;82.76
68793;BME280;55778;54.346;10.210;2023-04-25T04:23:04;100010.41;;;5.07;82.05
68793;BME280;55778;54.346;10.210;2023-04-25T04:25:30;100010.75;;;5.13;80.36
68793;BME280;55778;54.346;10.210;2023-04-25T04:27:56;100010.47;;;5.16;80.53
68793;BME280;55778;54.346;10.210;2023-04-25T04:30:23;100017.25;;;5.11;80.77
68793;BME280;55778;54.346;10.210;2023-04-25T04:32:55;100019.84;;;5.12;80.65
68793;BME280;55778;54.346;10.210;2023-04-25T04:35:21;100011.16;;;5.09;80.26
68793;BME280;55778;54.346;10.210;2023-04-25T04:37:47;100013.16;;;5.16;79.17
68793;BME280;55778;54.346;10.210;2023-04-25T04:40:13;100023.41;;;5.13;78.88
68793;BME280;55778;54.346;10.210;2023-04-25T04:42:43;100015.56;;;5.10;80.18
68793;BME280;55778;54.346;10.210;2023-04-25T04:45:10;100014.91;;;5.17;78.74
68793;BME280;55778;54.346;10.210;2023-04-25T04:47:35;100026.81;;;5.15;79.55
68793;BME280;55778;54.346;10.210;2023-04-25T04:50:03;100024.72;;;5.18;79.91
68793;BME280;55778;54.346;10.210;2023-04-25T04:52:29;100028.03;;;5.22;79.10
68793;BME280;55778;54.346;10.210;2023-04-25T04:54:55;100035.13;;;5.23;78.42
68793;BME280;55778;54.346;10.210;2023-04-25T04:57:20;100037.09;;;5.21;78.55
68793;BME280;55778;54.346;10.210;2023-04-25T04:59:45;100041.97;;;5.27;79.01
68793;BME280;55778;54.346;10.210;2023-04-25T05:02:11;100037.44;;;5.27;78.41
68793;BME280;55778;54.346;10.210;2023-04-25T05:04:36;100045.91;;;5.34;78.28
68793;BME280;55778;54.346;10.210;2023-04-25T05:07:02;100053.53;;;5.29;78.50
68793;BME280;55778;54.346;10.210;2023-04-25T05:09:27;100048.59;;;5.34;77.04
68793;BME280;55778;54.346;10.210;2023-04-25T05:11:56;100056.22;;;5.29;77.85
68793;BME280;55778;54.346;10.210;2023-04-25T05:14:21;100057.91;;;5.30;78.12
68793;BME280;55778;54.346;10.210;2023-04-25T05:16:47;100059.00;;;5.38;78.77
68793;BME280;55778;54.346;10.210;2023-04-25T05:19:13;100052.25;;;5.33;79.01
68793;BME280;55778;54.346;10.210;2023-04-25T05:21:38;100054.97;;;5.33;77.87
68793;BME280;55778;54.346;10.210;2023-04-25T05:24:04;100064.66;;;5.35;78.53
68793;BME280;55778;54.346;10.210;2023-04-25T05:26:29;100061.97;;;5.35;77.18
68793;BME280;55778;54.346;10.210;2023-04-25T05:28:57;100067.50;;;5.34;78.43
68793;BME280;55778;54.346;10.210;2023-04-25T05:31:22;100066.38;;;5.36;78.44
68793;BME280;55778;54.346;10.210;2023-04-25T05:33:48;100065.38;;;5.37;77.41
68793;BME280;55778;54.346;10.210;2023-04-25T05:36:13;100075.09;;;5.40;77.77
68793;BME280;55778;54.346;10.210;2023-04-25T05:38:38;100081.72;;;5.36;77.50
68793;BME280;55778;54.346;10.210;2023-04-25T05:41:04;100077.19;;;5.36;77.37
68793;BME280;55778;54.346;10.210;2023-04-25T05:43:29;100084.63;;;5.44;77.22
68793;BME280;55778;54.346;10.210;2023-04-25T05:45:55;100086.47;;;5.43;76.42
68793;BME280;55778;54.346;10.210;2023-04-25T05:48:20;100092.13;;;5.40;77.38
68793;BME280;55778;54.346;10.210;2023-04-25T05:50:45;100090.66;;;5.47;76.88
68793;BME280;55778;54.346;10.210;2023-04-25T05:53:11;100088.09;;;5.46;75.89
68793;BME280;55778;54.346;10.210;2023-04-25T05:55:36;100093.34;;;5.47;76.51
68793;BME280;55778;54.346;10.210;2023-04-25T05:58:02;100091.75;;;5.65;76.86
68793;BME280;55778;54.346;10.210;2023-04-25T06:00:27;100097.78;;;5.69;75.05
68793;BME280;55778;54.346;10.210;2023-04-25T06:02:52;100094.47;;;5.65;75.36
68793;BME280;55778;54.346;10.210;2023-04-25T06:05:18;100108.25;;;5.62;75.65
68793;BME280;55778;54.346;10.210;2023-04-25T06:07:43;100107.78;;;5.57;76.46
68793;BME280;55778;54.346;10.210;2023-04-25T06:10:09;100097.56;;;5.61;76.39
68793;BME280;55778;54.346;10.210;2023-04-25T06:12:35;100104.09;;;5.58;75.05
68793;BME280;55778;54.346;10.210;2023-04-25T06:15:00;100107.66;;;5.59;75.66
68793;BME280;55778;54.346;10.210;2023-04-25T06:17:26;100107.13;;;5.65;75.57
68793;BME280;55778;54.346;10.210;2023-04-25T06:19:51;100118.53;;;5.68;77.09
68793;BME280;55778;54.346;10.210;2023-04-25T06:22:17;100113.25;;;5.67;76.25
68793;BME280;55778;54.346;10.210;2023-04-25T06:24:45;100112.03;;;5.71;77.04
68793;BME280;55778;54.346;10.210;2023-04-25T06:27:11;100115.03;;;5.77;77.15
68793;BME280;55778;54.346;10.210;2023-04-25T06:29:36;100110.16;;;5.82;76.52
68793;BME280;55778;54.346;10.210;2023-04-25T06:32:01;100116.28;;;5.84;75.36
68793;BME280;55778;54.346;10.210;2023-04-25T06:34:27;100109.06;;;5.74;73.69
68793;BME280;55778;54.346;10.210;2023-04-25T06:36:52;100110.38;;;5.79;74.17
68793;BME280;55778;54.346;10.210;2023-04-25T06:39:17;100113.00;;;5.70;72.87
68793;BME280;55778;54.346;10.210;2023-04-25T06:41:45;100110.00;;;5.84;72.44
68793;BME280;55778;54.346;10.210;2023-04-25T06:44:10;100104.75;;;5.71;70.88
68793;BME280;55778;54.346;10.210;2023-04-25T06:46:36;100117.16;;;5.74;71.02
68793;BME280;55778;54.346;10.210;2023-04-25T06:49:02;100121.44;;;5.76;70.61
68793;BME280;55778;54.346;10.210;2023-04-25T06:51:28;100119.75;;;5.75;70.55
68793;BME280;55778;54.346;10.210;2023-04-25T06:53:54;100117.16;;;5.74;71.02
68793;BME280;55778;54.346;10.210;2023-04-25T06:56:20;100124.03;;;5.78;71.08
68793;BME280;55778;54.346;10.210;2023-04-25T06:58:46;100126.72;;;5.78;70.83
68793;BME280;55778;54.346;10.210;2023-04-25T07:01:11;100127.84;;;5.75;71.76
68793;BME280;55778;54.346;10.210;2023-04-25T07:03:37;100125.59;;;5.80;71.85
68793;BME280;55778;54.346;10.210;2023-04-25T07:06:03;100129.06;;;5.82;72.57
68793;BME280;55778;54.346;10.210;2023-04-25T07:08:29;100136.41;;;5.91;72.55
68793;BME280;55778;54.346;10.210;2023-04-25T07:10:54;100129.25;;;5.90;71.68
68793;BME280;55778;54.346;10.210;2023-04-25T07:13:20;100136.78;;;5.76;72.41
68793;BME280;55778;54.346;10.210;2023-04-25T07:15:45;100145.28;;;5.71;73.62
68793;BME280;55778;54.346;10.210;2023-04-25T07:18:13;100145.56;;;5.68;75.20
68793;BME280;55778;54.346;10.210;2023-04-25T07:20:38;100150.84;;;5.70;76.66
68793;BME280;55778;54.346;10.210;2023-04-25T07:23:04;100152.41;;;5.83;76.43
68793;BME280;55778;54.346;10.210;2023-04-25T07:25:29;100142.19;;;5.87;76.28
68793;BME280;55778;54.346;10.210;2023-04-25T07:27:55;100154.19;;;5.94;75.87
68793;BME280;55778;54.346;10.210;2023-04-25T07:30:21;100155.19;;;5.93;75.95
68793;BME280;55778;54.346;10.210;2023-04-25T07:32:47;100161.56;;;5.92;76.32
68793;BME280;55778;54.346;10.210;2023-04-25T07:35:12;100162.81;;;5.88;75.84
68793;BME280;55778;54.346;10.210;2023-04-25T07:37:38;100160.03;;;5.78;76.25
68793;BME280;55778;54.346;10.210;2023-04-25T07:40:04;100157.69;;;5.85;77.54
68793;BME280;55778;54.346;10.210;2023-04-25T07:42:30;100156.97;;;5.83;76.44
68793;BME280;55778;54.346;10.210;2023-04-25T07:44:58;100163.81;;;5.87;77.27
68793;BME280;55778;54.346;10.210;2023-04-25T07:47:23;100158.72;;;5.93;77.48
68793;BME280;55778;54.346;10.210;2023-04-25T07:49:49;100164.88;;;5.95;76.51
68793;BME280;55778;54.346;10.210;2023-04-25T07:52:17;100168.63;;;6.04;76.30
68793;BME280;55778;54.346;10.210;2023-04-25T07:54:43;100168.91;;;6.01;77.13
68793;BME280;55778;54.346;10.210;2023-04-25T07:57:09;100177.16;;;6.20;77.55
68793;BME280;55778;54.346;10.210;2023-04-25T07:59:35;100175.00;;;6.14;76.30
68793;BME280;55778;54.346;10.210;2023-04-25T08:02:00;100169.06;;;6.20;76.30
68793;BME280;55778;54.346;10.210;2023-04-25T08:04:26;100167.16;;;6.41;76.25
68793;BME280;55778;54.346;10.210;2023-04-25T08:06:52;100171.47;;;6.44;76.66
68793;BME280;55778;54.346;10.210;2023-04-25T08:09:20;100178.94;;;6.61;74.88
68793;BME280;55778;54.346;10.210;2023-04-25T08:11:46;100185.28;;;6.50;73.45
68793;BME280;55778;54.346;10.210;2023-04-25T08:14:12;100187.97;;;6.41;73.64
68793;BME280;55778;54.346;10.210;2023-04-25T08:16:37;100194.81;;;6.45;74.67
68793;BME280;55778;54.346;10.210;2023-04-25T08:19:03;100193.78;;;6.66;72.67
68793;BME280;55778;54.346;10.210;2023-04-25T08:21:28;100185.66;;;6.66;69.77
68793;BME280;55778;54.346;10.210;2023-04-25T08:23:54;100191.28;;;6.74;71.09
68793;BME280;55778;54.346;10.210;2023-04-25T08:26:19;100191.63;;;6.60;70.39
68793;BME280;55778;54.346;10.210;2023-04-25T08:28:46;100199.06;;;6.68;68.48
68793;BME280;55778;54.346;10.210;2023-04-25T08:31:11;100200.47;;;6.62;68.58
68793;BME280;55778;54.346;10.210;2023-04-25T08:33:36;100190.72;;;6.80;67.45
68793;BME280;55778;54.346;10.210;2023-04-25T08:36:02;100187.97;;;6.71;66.66
68793;BME280;55778;54.346;10.210;2023-04-25T08:38:28;100199.31;;;6.85;64.83
68793;BME280;55778;54.346;10.210;2023-04-25T08:40:54;100195.88;;;6.83;63.45
68793;BME280;55778;54.346;10.210;2023-04-25T08:43:20;100206.66;;;7.04;63.42
68793;BME280;55778;54.346;10.210;2023-04-25T08:45:46;100205.53;;;7.16;62.34
68793;BME280;55778;54.346;10.210;2023-04-25T08:48:14;100199.56;;;7.22;61.66
68793;BME280;55778;54.346;10.210;2023-04-25T08:50:51;100220.97;;;7.25;63.07
68793;BME280;55778;54.346;10.210;2023-04-25T08:53:22;100222.28;;;6.91;62.37
68793;BME280;55778;54.346;10.210;2023-04-25T08:55:48;100222.19;;;6.72;62.54
68793;BME280;55778;54.346;10.210;2023-04-25T08:58:15;100238.38;;;6.62;62.56
68793;BME280;55778;54.346;10.210;2023-04-25T09:00:40;100245.31;;;6.55;63.78
68793;BME280;55778;54.346;10.210;2023-04-25T09:03:06;100243.22;;;6.59;64.95
68793;BME280;55778;54.346;10.210;2023-04-25T09:05:34;100248.47;;;6.81;65.76
68793;BME280;55778;54.346;10.210;2023-04-25T09:08:01;100251.59;;;6.56;64.29
68793;BME280;55778;54.346;10.210;2023-04-25T09:10:27;100257.06;;;6.65;66.68
68793;BME280;55778;54.346;10.210;2023-04-25T09:13:10;100260.81;;;6.53;67.79
68793;BME280;55778;54.346;10.210;2023-04-25T09:18:23;100257.72;;;6.58;70.16
68793;BME280;55778;54.346;10.210;2023-04-25T09:20:51;100265.25;;;6.54;70.55
68793;BME280;55778;54.346;10.210;2023-04-25T09:23:18;100259.44;;;6.38;70.96
68793;BME280;55778;54.346;10.210;2023-04-25T09:25:47;100263.91;;;6.69;71.07
68793;BME280;55778;54.346;10.210;2023-04-25T09:28:13;100278.13;;;6.82;71.46
68793;BME280;55778;54.346;10.210;2023-04-25T09:30:38;100271.44;;;6.86;68.88
68793;BME280;55778;54.346;10.210;2023-04-25T09:33:08;100275.91;;;6.97;67.63
68793;BME280;55778;54.346;10.210;2023-04-25T09:35:38;100274.03;;;7.27;65.90
68793;BME280;55778;54.346;10.210;2023-04-25T09:38:08;100273.00;;;7.19;66.40
68793;BME280;55778;54.346;10.210;2023-04-25T09:40:45;100276.19;;;6.94;66.80
68793;BME280;55778;54.346;10.210;2023-04-25T09:43:24;100278.06;;;7.03;67.17
68793;BME280;55778;54.346;10.210;2023-04-25T09:45:52;100299.81;;;6.92;67.89
68793;BME280;55778;54.346;10.210;2023-04-25T09:48:19;100282.97;;;7.09;69.41
68793;BME280;55778;54.346;10.210;2023-04-25T09:53:29;100280.84;;;7.52;70.23
68793;BME280;55778;54.346;10.210;2023-04-25T09:56:00;100292.19;;;7.36;68.52
68793;BME280;55778;54.346;10.210;2023-04-25T09:58:25;100275.50;;;7.31;67.39
68793;BME280;55778;54.346;10.210;2023-04-25T10:00:57;100284.19;;;7.25;68.06
68793;BME280;55778;54.346;10.210;2023-04-25T10:03:25;100283.16;;;7.56;67.74
68793;BME280;55778;54.346;10.210;2023-04-25T10:05:52;100308.78;;;7.52;66.46
68793;BME280;55778;54.346;10.210;2023-04-25T10:08:19;100282.59;;;6.93;65.93
68793;BME280;55778;54.346;10.210;2023-04-25T10:10:46;100298.00;;;6.72;67.28
68793;BME280;55778;54.346;10.210;2023-04-25T10:13:13;100298.25;;;6.89;69.38
68793;BME280;55778;54.346;10.210;2023-04-25T10:15:40;100311.25;;;6.95;70.22
68793;BME280;55778;54.346;10.210;2023-04-25T10:18:06;100314.56;;;6.78;72.09
68793;BME280;55778;54.346;10.210;2023-04-25T10:20:32;100333.13;;;6.31;77.13
68793;BME280;55778;54.346;10.210;2023-04-25T10:23:04;100331.22;;;5.57;86.41
68793;BME280;55778;54.346;10.210;2023-04-25T10:25:33;100346.84;;;5.31;90.14
68793;BME280;55778;54.346;10.210;2023-04-25T10:27:59;100338.50;;;5.45;91.13
68793;BME280;55778;54.346;10.210;2023-04-25T10:30:25;100334.94;;;6.41;88.87
68793;BME280;55778;54.346;10.210;2023-04-25T10:32:54;100340.59;;;6.70;86.62
68793;BME280;55778;54.346;10.210;2023-04-25T10:35:38;100343.47;;;7.19;81.81
68793;BME280;55778;54.346;10.210;2023-04-25T10:38:05;100330.34;;;6.94;77.78
68793;BME280;55778;54.346;10.210;2023-04-25T10:40:32;100322.69;;;7.29;75.77
68793;BME280;55778;54.346;10.210;2023-04-25T10:43:42;100318.53;;;7.25;74.66
68793;BME280;55778;54.346;10.210;2023-04-25T10:46:28;100345.00;;;7.42;74.55
68793;BME280;55778;54.346;10.210;2023-04-25T10:48:57;100335.41;;;7.08;74.59
68793;BME280;55778;54.346;10.210;2023-04-25T10:51:28;100325.09;;;7.02;75.27
68793;BME280;55778;54.346;10.210;2023-04-25T10:54:04;100327.38;;;6.97;76.87
68793;BME280;55778;54.346;10.210;2023-04-25T10:56:38;100317.94;;;6.91;75.95
68793;BME280;55778;54.346;10.210;2023-04-25T10:59:12;100334.44;;;7.09;77.50
68793;BME280;55778;54.346;10.210;2023-04-25T11:01:46;100340.56;;;7.41;75.33
68793;BME280;55778;54.346;10.210;2023-04-25T11:04:28;100335.69;;;7.74;74.10
68793;BME280;55778;54.346;10.210;2023-04-25T11:09:33;100328.59;;;7.92;72.13
68793;BME280;55778;54.346;10.210;2023-04-25T11:11:59;100326.22;;;8.18;72.92
68793;BME280;55778;54.346;10.210;2023-04-25T11:14:26;100333.63;;;8.16;71.57
68793;BME280;55778;54.346;10.210;2023-04-25T11:16:58;100324.81;;;8.14;70.65
68793;BME280;55778;54.346;10.210;2023-04-25T11:19:25;100329.59;;;7.42;73.59
68793;BME280;55778;54.346;10.210;2023-04-25T11:21:50;100343.47;;;7.19;75.63
68793;BME280;55778;54.346;10.210;2023-04-25T11:24:19;100356.78;;;7.01;75.72
68793;BME280;55778;54.346;10.210;2023-04-25T11:26:46;100353.00;;;6.72;73.73
68793;BME280;55778;54.346;10.210;2023-04-25T11:29:12;100355.56;;;7.15;72.99
68793;BME280;55778;54.346;10.210;2023-04-25T11:31:38;100369.06;;;7.05;71.63
68793;BME280;55778;54.346;10.210;2023-04-25T11:34:03;100366.44;;;7.24;70.14
68793;BME280;55778;54.346;10.210;2023-04-25T11:36:29;100357.38;;;7.74;67.38
68793;BME280;55778;54.346;10.210;2023-04-25T11:38:55;100353.94;;;8.22;66.58
68793;BME280;55778;54.346;10.210;2023-04-25T11:41:21;100344.94;;;8.21;64.14
68793;BME280;55778;54.346;10.210;2023-04-25T11:43:48;100366.72;;;8.59;64.00
68793;BME280;55778;54.346;10.210;2023-04-25T11:46:14;100357.00;;;8.57;61.40
68793;BME280;55778;54.346;10.210;2023-04-25T11:48:41;100339.94;;;8.16;64.30
68793;BME280;55778;54.346;10.210;2023-04-25T11:51:07;100357.59;;;8.60;66.70
68793;BME280;55778;54.346;10.210;2023-04-25T11:53:32;100361.69;;;8.36;67.45
68793;BME280;55778;54.346;10.210;2023-04-25T11:55:58;100364.28;;;7.78;70.70
68793;BME280;55778;54.346;10.210;2023-04-25T11:58:23;100357.81;;;7.10;78.71
68793;BME280;55778;54.346;10.210;2023-04-25T12:00:50;100390.56;;;5.91;81.61
68793;BME280;55778;54.346;10.210;2023-04-25T12:03:17;100408.50;;;5.70;81.37
68793;BME280;55778;54.346;10.210;2023-04-25T12:05:44;100406.63;;;6.04;86.25
68793;BME280;55778;54.346;10.210;2023-04-25T12:08:14;100406.00;;;6.23;86.51
68793;BME280;55778;54.346;10.210;2023-04-25T12:10:41;100399.31;;;6.38;81.01
68793;BME280;55778;54.346;10.210;2023-04-25T12:13:26;100407.84;;;7.06;78.77
68793;BME280;55778;54.346;10.210;2023-04-25T12:15:56;100400.75;;;7.35;76.21
68793;BME280;55778;54.346;10.210;2023-04-25T12:18:25;100407.81;;;7.47;73.40
68793;BME280;55778;54.346;10.210;2023-04-25T12:20:53;100408.84;;;7.55;71.50
68793;BME280;55778;54.346;10.210;2023-04-25T12:23:25;100402.00;;;7.91;70.49
68793;BME280;55778;54.346;10.210;2023-04-25T12:25:51;100398.63;;;8.17;69.85
68793;BME280;55778;54.346;10.210;2023-04-25T12:28:21;100401.31;;;8.57;68.83
68793;BME280;55778;54.346;10.210;2023-04-25T12:31:05;100400.22;;;8.20;69.10
68793;BME280;55778;54.346;10.210;2023-04-25T12:33:35;100376.69;;;8.87;69.17
68793;BME280;55778;54.346;10.210;2023-04-25T12:36:02;100393.88;;;8.50;65.92
68793;BME280;55778;54.346;10.210;2023-04-25T12:38:40;100415.72;;;8.29;64.84
68793;BME280;55778;54.346;10.210;2023-04-25T12:41:06;100407.91;;;8.15;66.55
68793;BME280;55778;54.346;10.210;2023-04-25T12:43:31;100409.88;;;8.34;68.06
68793;BME280;55778;54.346;10.210;2023-04-25T12:45:57;100396.16;;;8.54;63.38
68793;BME280;55778;54.346;10.210;2023-04-25T12:48:23;100414.88;;;8.48;64.39
68793;BME280;55778;54.346;10.210;2023-04-25T12:50:49;100412.03;;;8.40;64.78
68793;BME280;55778;54.346;10.210;2023-04-25T12:53:16;100406.59;;;8.00;67.06
68793;BME280;55778;54.346;10.210;2023-04-25T12:55:41;100454.09;;;5.75;80.38
68793;BME280;55778;54.346;10.210;2023-04-25T12:58:07;100452.53;;;5.27;86.62
68793;BME280;55778;54.346;10.210;2023-04-25T13:00:33;100445.22;;;5.51;85.81
68793;BME280;55778;54.346;10.210;2023-04-25T13:02:58;100450.53;;;6.07;83.33
68793;BME280;55778;54.346;10.210;2023-04-25T13:05:24;100443.63;;;6.26;74.95
68793;BME280;55778;54.346;10.210;2023-04-25T13:07:50;100435.31;;;6.38;72.81
68793;BME280;55778;54.346;10.210;2023-04-25T13:10:16;100433.97;;;6.75;72.30
68793;BME280;55778;54.346;10.210;2023-04-25T13:12:43;100441.91;;;6.88;72.33
68793;BME280;55778;54.346;10.210;2023-04-25T13:15:09;100442.84;;;7.39;71.35
68793;BME280;55778;54.346;10.210;2023-04-25T13:17:36;100433.91;;;7.48;70.31
68793;BME280;55778;54.346;10.210;2023-04-25T13:20:03;100446.94;;;7.54;69.69
68793;BME280;55778;54.346;10.210;2023-04-25T13:22:31;100445.81;;;7.86;70.18